sensor_id;sensor_type;location;lat;lon;timestamp;temperature;humidity
60234;DHT22;49514;43.538;-5.708;2023-02-13T00:00:51;7.50;99.90
60234;DHT22;49514;43.538;-5.708;2023-02-13T00:03:18;7.50;99.90
60234;DHT22;49514;43.538;-5.708;2023-02-13T00:05:44;7.50;99.90
60234;DHT22;49514;43.538;-5.708;2023-02-13T00:08:11;7.50;99.90
60234;DHT22;49514;43.538;-5.708;2023-02-13T00:10:37;7.50;99.90
60234;DHT22;49514;43.538;-5.708;2023-02-13T00:13:04;7.40;99.90
60234;DHT22;49514;43.538;-5.708;2023-02-13T00:15:30;7.40;99.90
60234;DHT22;49514;43.538;-5.708;2023-02-13T00:17:57;7.30;99.90
60234;DHT22;49514;43.538;-5.708;2023-02-13T00:20:23;7.30;99.90
60234;DHT22;49514;43.538;-5.708;2023-02-13T00:22:50;7.30;99.90
60234;DHT22;49514;43.538;-5.708;2023-02-13T00:25:16;7.30;99.90
60234;DHT22;49514;43.538;-5.708;2023-02-13T00:27:43;7.30;99.90
60234;DHT22;49514;43.538;-5.708;2023-02-13T00:30:09;7.20;99.90
60234;DHT22;49514;43.538;-5.708;2023-02-13T00:32:36;7.20;99.90
60234;DHT22;49514;43.538;-5.708;2023-02-13T00:35:02;7.20;99.90
60234;DHT22;49514;43.538;-5.708;2023-02-13T00:37:29;7.20;99.90
60234;DHT22;49514;43.538;-5.708;2023-02-13T00:39:56;7.10;99.90
60234;DHT22;49514;43.538;-5.708;2023-02-13T00:42:22;7.20;99.90
60234;DHT22;49514;43.538;-5.708;2023-02-13T00:44:51;7.20;99.90
60234;DHT22;49514;43.538;-5.708;2023-02-13T00:47:18;7.10;99.90
60234;DHT22;49514;43.538;-5.708;2023-02-13T00:49:45;7.10;99.90
60234;DHT22;49514;43.538;-5.708;2023-02-13T00:52:11;7.10;99.90
60234;DHT22;49514;43.538;-5.708;2023-02-13T00:54:38;7.10;99.90
60234;DHT22;49514;43.538;-5.708;2023-02-13T00:57:05;7.10;99.90
60234;DHT22;49514;43.538;-5.708;2023-02-13T00:59:32;7.10;99.90
60234;DHT22;49514;43.538;-5.708;2023-02-13T01:01:59;7.10;99.90
60234;DHT22;49514;43.538;-5.708;2023-02-13T01:04:26;7.10;99.90
60234;DHT22;49514;43.538;-5.708;2023-02-13T01:06:55;7.10;99.90
60234;DHT22;49514;43.538;-5.708;2023-02-13T01:09:21;7.10;99.90
60234;DHT22;49514;43.538;-5.708;2023-02-13T01:11:48;7.10;99.90
60234;DHT22;49514;43.538;-5.708;2023-02-13T01:14:14;7.10;99.90
60234;DHT22;49514;43.538;-5.708;2023-02-13T01:16:41;7.10;99.90
60234;DHT22;49514;43.538;-5.708;2023-02-13T01:19:07;7.10;99.90
60234;DHT22;49514;43.538;-5.708;2023-02-13T01:21:34;7.10;99.90
60234;DHT22;49514;43.538;-5.708;2023-02-13T01:24:02;7.00;99.90
60234;DHT22;49514;43.538;-5.708;2023-02-13T01:26:28;7.10;99.90
60234;DHT22;49514;43.538;-5.708;2023-02-13T01:28:55;7.10;99.90
60234;DHT22;49514;43.538;-5.708;2023-02-13T01:31:23;7.10;99.90
60234;DHT22;49514;43.538;-5.708;2023-02-13T01:33:50;7.10;99.90
60234;DHT22;49514;43.538;-5.708;2023-02-13T01:36:20;7.10;99.90
60234;DHT22;49514;43.538;-5.708;2023-02-13T01:38:46;7.10;99.90
60234;DHT22;49514;43.538;-5.708;2023-02-13T01:41:13;7.10;99.90
60234;DHT22;49514;43.538;-5.708;2023-02-13T01:46:09;7.10;99.90
60234;DHT22;49514;43.538;-5.708;2023-02-13T01:48:36;7.00;99.90
60234;DHT22;49514;43.538;-5.708;2023-02-13T01:51:07;7.00;99.90
60234;DHT22;49514;43.538;-5.708;2023-02-13T01:53:45;7.00;99.90
60234;DHT22;49514;43.538;-5.708;2023-02-13T01:56:33;7.00;99.90
60234;DHT22;49514;43.538;-5.708;2023-02-13T01:59:04;6.90;99.90
60234;DHT22;49514;43.538;-5.708;2023-02-13T02:01:32;6.90;99.90
60234;DHT22;49514;43.538;-5.708;2023-02-13T02:04:03;6.80;99.90
60234;DHT22;49514;43.538;-5.708;2023-02-13T02:06:45;6.90;99.90
60234;DHT22;49514;43.538;-5.708;2023-02-13T02:09:22;6.80;99.90
60234;DHT22;49514;43.538;-5.708;2023-02-13T02:11:58;6.80;99.90
60234;DHT22;49514;43.538;-5.708;2023-02-13T02:14:26;6.80;99.90
60234;DHT22;49514;43.538;-5.708;2023-02-13T02:16:54;6.80;99.90
60234;DHT22;49514;43.538;-5.708;2023-02-13T02:19:25;6.80;99.90
60234;DHT22;49514;43.538;-5.708;2023-02-13T02:34:39;6.60;99.90
60234;DHT22;49514;43.538;-5.708;2023-02-13T02:37:17;6.50;99.90
60234;DHT22;49514;43.538;-5.708;2023-02-13T02:39:54;6.40;99.90
60234;DHT22;49514;43.538;-5.708;2023-02-13T02:50:19;6.30;99.90
60234;DHT22;49514;43.538;-5.708;2023-02-13T02:55:49;6.20;99.90
60234;DHT22;49514;43.538;-5.708;2023-02-13T03:01:03;6.20;99.90
60234;DHT22;49514;43.538;-5.708;2023-02-13T03:03:49;6.20;99.90
60234;DHT22;49514;43.538;-5.708;2023-02-13T03:06:36;6.20;99.90
60234;DHT22;49514;43.538;-5.708;2023-02-13T03:09:04;6.30;99.90
60234;DHT22;49514;43.538;-5.708;2023-02-13T03:11:50;6.30;99.90
60234;DHT22;49514;43.538;-5.708;2023-02-13T03:14:37;6.30;99.90
60234;DHT22;49514;43.538;-5.708;2023-02-13T03:17:03;6.40;99.90
60234;DHT22;49514;43.538;-5.708;2023-02-13T03:20:12;6.30;99.90
60234;DHT22;49514;43.538;-5.708;2023-02-13T03:28:05;6.30;99.90
60234;DHT22;49514;43.538;-5.708;2023-02-13T03:30:59;6.20;99.90
60234;DHT22;49514;43.538;-5.708;2023-02-13T03:38:42;6.00;99.90
60234;DHT22;49514;43.538;-5.708;2023-02-13T03:43:52;5.90;99.90
60234;DHT22;49514;43.538;-5.708;2023-02-13T03:46:22;5.80;99.90
60234;DHT22;49514;43.538;-5.708;2023-02-13T03:48:49;5.80;99.90
60234;DHT22;49514;43.538;-5.708;2023-02-13T03:51:37;5.70;99.90
60234;DHT22;49514;43.538;-5.708;2023-02-13T03:54:06;5.70;99.90
60234;DHT22;49514;43.538;-5.708;2023-02-13T03:56:33;5.60;99.90
60234;DHT22;49514;43.538;-5.708;2023-02-13T03:59:26;5.60;99.90
60234;DHT22;49514;43.538;-5.708;2023-02-13T04:07:00;5.50;99.90
60234;DHT22;49514;43.538;-5.708;2023-02-13T04:09:28;5.50;99.90
60234;DHT22;49514;43.538;-5.708;2023-02-13T04:15:09;5.40;99.90
60234;DHT22;49514;43.538;-5.708;2023-02-13T04:17:16;5.40;99.90
60234;DHT22;49514;43.538;-5.708;2023-02-13T04:22:10;5.40;99.90
60234;DHT22;49514;43.538;-5.708;2023-02-13T04:24:37;5.40;99.90
60234;DHT22;49514;43.538;-5.708;2023-02-13T04:27:03;5.40;99.90
60234;DHT22;49514;43.538;-5.708;2023-02-13T04:29:29;5.40;99.90
60234;DHT22;49514;43.538;-5.708;2023-02-13T04:31:56;5.40;99.90
60234;DHT22;49514;43.538;-5.708;2023-02-13T04:34:22;5.40;99.90
60234;DHT22;49514;43.538;-5.708;2023-02-13T04:36:49;5.40;99.90
60234;DHT22;49514;43.538;-5.708;2023-02-13T04:39:15;5.40;99.90
60234;DHT22;49514;43.538;-5.708;2023-02-13T04:41:41;5.40;99.90
60234;DHT22;49514;43.538;-5.708;2023-02-13T04:44:07;5.50;99.90
60234;DHT22;49514;43.538;-5.708;2023-02-13T04:46:34;5.40;99.90
60234;DHT22;49514;43.538;-5.708;2023-02-13T04:49:00;5.40;99.90
60234;DHT22;49514;43.538;-5.708;2023-02-13T04:51:26;5.40;99.90
60234;DHT22;49514;43.538;-5.708;2023-02-13T04:53:53;5.50;99.90
60234;DHT22;49514;43.538;-5.708;2023-02-13T04:56:19;5.50;99.90
60234;DHT22;49514;43.538;-5.708;2023-02-13T04:58:45;5.50;99.90
60234;DHT22;49514;43.538;-5.708;2023-02-13T05:01:13;5.50;99.90
60234;DHT22;49514;43.538;-5.708;2023-02-13T05:03:39;5.50;99.90
60234;DHT22;49514;43.538;-5.708;2023-02-13T05:06:06;5.50;99.90
60234;DHT22;49514;43.538;-5.708;2023-02-13T05:08:32;5.60;99.90
60234;DHT22;49514;43.538;-5.708;2023-02-13T05:10:58;5.60;99.90
60234;DHT22;49514;43.538;-5.708;2023-02-13T05:13:25;5.70;99.90
60234;DHT22;49514;43.538;-5.708;2023-02-13T05:15:51;5.70;99.90
60234;DHT22;49514;43.538;-5.708;2023-02-13T05:18:18;5.70;99.90
60234;DHT22;49514;43.538;-5.708;2023-02-13T05:20:44;5.70;99.90
60234;DHT22;49514;43.538;-5.708;2023-02-13T05:23:31;5.80;99.90
60234;DHT22;49514;43.538;-5.708;2023-02-13T05:25:57;5.80;99.90
60234;DHT22;49514;43.538;-5.708;2023-02-13T05:28:24;5.90;99.90
60234;DHT22;49514;43.538;-5.708;2023-02-13T05:31:08;5.90;99.90
60234;DHT22;49514;43.538;-5.708;2023-02-13T05:33:35;5.90;99.90
60234;DHT22;49514;43.538;-5.708;2023-02-13T05:36:02;6.00;99.90
60234;DHT22;49514;43.538;-5.708;2023-02-13T05:38:29;6.10;99.90
60234;DHT22;49514;43.538;-5.708;2023-02-13T05:40:57;6.10;99.90
60234;DHT22;49514;43.538;-5.708;2023-02-13T05:43:23;6.20;99.90
60234;DHT22;49514;43.538;-5.708;2023-02-13T05:45:50;6.20;99.90
60234;DHT22;49514;43.538;-5.708;2023-02-13T05:48:17;6.30;99.90
60234;DHT22;49514;43.538;-5.708;2023-02-13T05:53:10;6.40;99.90
60234;DHT22;49514;43.538;-5.708;2023-02-13T05:55:37;6.40;99.90
60234;DHT22;49514;43.538;-5.708;2023-02-13T05:58:03;6.40;99.90
60234;DHT22;49514;43.538;-5.708;2023-02-13T06:00:30;6.50;99.90
60234;DHT22;49514;43.538;-5.708;2023-02-13T06:02:56;6.50;99.90
60234;DHT22;49514;43.538;-5.708;2023-02-13T06:05:22;6.60;99.90
60234;DHT22;49514;43.538;-5.708;2023-02-13T06:07:49;6.60;99.90
60234;DHT22;49514;43.538;-5.708;2023-02-13T06:10:15;6.60;99.90
60234;DHT22;49514;43.538;-5.708;2023-02-13T06:12:42;6.60;99.90
60234;DHT22;49514;43.538;-5.708;2023-02-13T06:15:08;6.70;99.90
60234;DHT22;49514;43.538;-5.708;2023-02-13T06:17:35;6.70;99.90
60234;DHT22;49514;43.538;-5.708;2023-02-13T06:20:01;6.70;99.90
60234;DHT22;49514;43.538;-5.708;2023-02-13T06:22:27;6.80;99.90
60234;DHT22;49514;43.538;-5.708;2023-02-13T06:24:54;6.80;99.90
60234;DHT22;49514;43.538;-5.708;2023-02-13T06:27:20;6.80;99.90
60234;DHT22;49514;43.538;-5.708;2023-02-13T06:29:46;6.80;99.90
60234;DHT22;49514;43.538;-5.708;2023-02-13T06:32:13;6.80;99.90
60234;DHT22;49514;43.538;-5.708;2023-02-13T06:34:39;6.80;99.90
60234;DHT22;49514;43.538;-5.708;2023-02-13T06:37:06;6.80;99.90
60234;DHT22;49514;43.538;-5.708;2023-02-13T06:39:33;6.80;99.90
60234;DHT22;49514;43.538;-5.708;2023-02-13T06:41:59;6.80;99.90
60234;DHT22;49514;43.538;-5.708;2023-02-13T06:44:26;6.80;99.90
60234;DHT22;49514;43.538;-5.708;2023-02-13T06:46:52;6.80;99.90
60234;DHT22;49514;43.538;-5.708;2023-02-13T06:49:18;6.80;99.90
60234;DHT22;49514;43.538;-5.708;2023-02-13T06:51:45;6.80;99.90
60234;DHT22;49514;43.538;-5.708;2023-02-13T06:54:11;6.80;99.90
60234;DHT22;49514;43.538;-5.708;2023-02-13T06:56:38;6.80;99.90
60234;DHT22;49514;43.538;-5.708;2023-02-13T06:59:04;6.80;99.90
60234;DHT22;49514;43.538;-5.708;2023-02-13T07:01:30;6.70;99.90
60234;DHT22;49514;43.538;-5.708;2023-02-13T07:03:57;6.70;99.90
60234;DHT22;49514;43.538;-5.708;2023-02-13T07:06:24;6.80;99.90
60234;DHT22;49514;43.538;-5.708;2023-02-13T07:08:50;6.70;99.90
60234;DHT22;49514;43.538;-5.708;2023-02-13T07:11:21;6.80;99.90
60234;DHT22;49514;43.538;-5.708;2023-02-13T07:13:48;6.70;99.90
60234;DHT22;49514;43.538;-5.708;2023-02-13T07:16:14;6.80;99.90
60234;DHT22;49514;43.538;-5.708;2023-02-13T07:18:41;6.70;99.90
60234;DHT22;49514;43.538;-5.708;2023-02-13T07:21:07;6.80;99.90
60234;DHT22;49514;43.538;-5.708;2023-02-13T07:23:34;6.80;99.90
60234;DHT22;49514;43.538;-5.708;2023-02-13T07:26:00;6.80;99.90
60234;DHT22;49514;43.538;-5.708;2023-02-13T07:28:27;6.90;99.90
60234;DHT22;49514;43.538;-5.708;2023-02-13T07:30:54;6.90;99.90
60234;DHT22;49514;43.538;-5.708;2023-02-13T07:33:21;6.90;99.90
60234;DHT22;49514;43.538;-5.708;2023-02-13T07:35:50;7.00;99.90
60234;DHT22;49514;43.538;-5.708;2023-02-13T07:38:17;7.00;99.90
60234;DHT22;49514;43.538;-5.708;2023-02-13T07:40:44;7.00;99.90
60234;DHT22;49514;43.538;-5.708;2023-02-13T07:43:11;7.10;99.90
60234;DHT22;49514;43.538;-5.708;2023-02-13T07:45:38;7.20;99.90
60234;DHT22;49514;43.538;-5.708;2023-02-13T07:48:04;7.20;99.90
60234;DHT22;49514;43.538;-5.708;2023-02-13T07:50:31;7.30;99.90
60234;DHT22;49514;43.538;-5.708;2023-02-13T07:52:58;7.30;99.90
60234;DHT22;49514;43.538;-5.708;2023-02-13T07:55:25;7.30;99.90
60234;DHT22;49514;43.538;-5.708;2023-02-13T07:57:52;7.40;99.90
60234;DHT22;49514;43.538;-5.708;2023-02-13T08:00:18;7.40;99.90
60234;DHT22;49514;43.538;-5.708;2023-02-13T08:02:45;7.40;99.90
60234;DHT22;49514;43.538;-5.708;2023-02-13T08:05:11;7.50;99.90
60234;DHT22;49514;43.538;-5.708;2023-02-13T08:07:38;7.50;99.90
60234;DHT22;49514;43.538;-5.708;2023-02-13T08:10:07;7.60;99.90
60234;DHT22;49514;43.538;-5.708;2023-02-13T08:12:52;7.60;99.90
60234;DHT22;49514;43.538;-5.708;2023-02-13T08:15:19;7.60;99.90
60234;DHT22;49514;43.538;-5.708;2023-02-13T08:17:45;7.60;99.90
60234;DHT22;49514;43.538;-5.708;2023-02-13T08:20:12;7.60;99.90
60234;DHT22;49514;43.538;-5.708;2023-02-13T08:22:38;7.70;99.90
60234;DHT22;49514;43.538;-5.708;2023-02-13T08:25:05;7.70;99.90
60234;DHT22;49514;43.538;-5.708;2023-02-13T08:27:32;7.70;99.90
60234;DHT22;49514;43.538;-5.708;2023-02-13T08:29:58;7.80;99.90
60234;DHT22;49514;43.538;-5.708;2023-02-13T08:32:25;7.90;99.90
60234;DHT22;49514;43.538;-5.708;2023-02-13T08:34:51;8.00;99.90
60234;DHT22;49514;43.538;-5.708;2023-02-13T08:37:18;8.10;99.90
60234;DHT22;49514;43.538;-5.708;2023-02-13T08:39:44;8.10;99.90
60234;DHT22;49514;43.538;-5.708;2023-02-13T08:42:10;8.20;99.90
60234;DHT22;49514;43.538;-5.708;2023-02-13T08:44:37;8.40;99.90
60234;DHT22;49514;43.538;-5.708;2023-02-13T08:47:06;8.50;99.90
60234;DHT22;49514;43.538;-5.708;2023-02-13T08:49:33;8.60;99.90
60234;DHT22;49514;43.538;-5.708;2023-02-13T08:52:00;8.70;99.90
60234;DHT22;49514;43.538;-5.708;2023-02-13T08:54:26;8.80;99.90
60234;DHT22;49514;43.538;-5.708;2023-02-13T08:56:53;8.90;99.90
60234;DHT22;49514;43.538;-5.708;2023-02-13T08:59:20;9.00;99.90
60234;DHT22;49514;43.538;-5.708;2023-02-13T09:01:46;9.00;99.90
60234;DHT22;49514;43.538;-5.708;2023-02-13T09:04:13;9.10;99.90
60234;DHT22;49514;43.538;-5.708;2023-02-13T09:06:43;9.20;99.90
60234;DHT22;49514;43.538;-5.708;2023-02-13T09:09:10;9.30;99.90
60234;DHT22;49514;43.538;-5.708;2023-02-13T09:11:36;9.40;99.90
60234;DHT22;49514;43.538;-5.708;2023-02-13T09:14:03;9.50;99.90
60234;DHT22;49514;43.538;-5.708;2023-02-13T09:16:29;9.70;99.90
60234;DHT22;49514;43.538;-5.708;2023-02-13T09:18:55;9.80;99.90
60234;DHT22;49514;43.538;-5.708;2023-02-13T09:21:22;9.90;99.90
60234;DHT22;49514;43.538;-5.708;2023-02-13T09:23:49;10.00;99.90
60234;DHT22;49514;43.538;-5.708;2023-02-13T09:26:20;10.20;99.90
60234;DHT22;49514;43.538;-5.708;2023-02-13T09:28:47;10.30;99.90
60234;DHT22;49514;43.538;-5.708;2023-02-13T09:31:15;10.30;99.90
60234;DHT22;49514;43.538;-5.708;2023-02-13T09:33:42;10.60;99.90
60234;DHT22;49514;43.538;-5.708;2023-02-13T09:36:10;10.60;99.90
60234;DHT22;49514;43.538;-5.708;2023-02-13T09:38:39;10.70;99.90
60234;DHT22;49514;43.538;-5.708;2023-02-13T09:41:11;10.90;99.90
60234;DHT22;49514;43.538;-5.708;2023-02-13T09:43:50;11.00;99.90
60234;DHT22;49514;43.538;-5.708;2023-02-13T09:46:21;11.10;99.90
60234;DHT22;49514;43.538;-5.708;2023-02-13T09:48:50;11.20;99.90
60234;DHT22;49514;43.538;-5.708;2023-02-13T09:51:18;11.20;99.90
60234;DHT22;49514;43.538;-5.708;2023-02-13T09:53:55;11.30;99.90
60234;DHT22;49514;43.538;-5.708;2023-02-13T09:56:30;11.50;99.90
60234;DHT22;49514;43.538;-5.708;2023-02-13T09:59:00;11.60;99.90
60234;DHT22;49514;43.538;-5.708;2023-02-13T10:01:33;11.70;99.90
60234;DHT22;49514;43.538;-5.708;2023-02-13T10:06:57;11.90;99.90
60234;DHT22;49514;43.538;-5.708;2023-02-13T10:09:32;12.10;99.90
60234;DHT22;49514;43.538;-5.708;2023-02-13T10:12:07;12.30;99.90
60234;DHT22;49514;43.538;-5.708;2023-02-13T10:17:13;12.40;99.90
60234;DHT22;49514;43.538;-5.708;2023-02-13T10:22:22;12.60;99.90
60234;DHT22;49514;43.538;-5.708;2023-02-13T10:24:53;12.70;99.90
60234;DHT22;49514;43.538;-5.708;2023-02-13T10:27:27;12.80;99.70
60234;DHT22;49514;43.538;-5.708;2023-02-13T10:35:26;13.10;99.00
60234;DHT22;49514;43.538;-5.708;2023-02-13T10:37:55;13.30;98.90
60234;DHT22;49514;43.538;-5.708;2023-02-13T10:40:31;13.40;97.80
60234;DHT22;49514;43.538;-5.708;2023-02-13T10:43:07;13.40;97.70
60234;DHT22;49514;43.538;-5.708;2023-02-13T10:45:51;13.60;98.00
60234;DHT22;49514;43.538;-5.708;2023-02-13T10:51:13;13.90;97.90
60234;DHT22;49514;43.538;-5.708;2023-02-13T11:02:02;14.30;95.70
60234;DHT22;49514;43.538;-5.708;2023-02-13T11:04:36;14.40;95.90
60234;DHT22;49514;43.538;-5.708;2023-02-13T11:07:22;14.60;95.70
60234;DHT22;49514;43.538;-5.708;2023-02-13T11:09:53;14.70;95.20
60234;DHT22;49514;43.538;-5.708;2023-02-13T11:12:32;14.90;94.80
60234;DHT22;49514;43.538;-5.708;2023-02-13T11:15:02;15.10;94.60
60234;DHT22;49514;43.538;-5.708;2023-02-13T11:17:31;15.30;95.50
60234;DHT22;49514;43.538;-5.708;2023-02-13T11:20:20;15.50;94.30
60234;DHT22;49514;43.538;-5.708;2023-02-13T11:22:48;15.60;93.50
60234;DHT22;49514;43.538;-5.708;2023-02-13T11:25:24;15.70;92.60
60234;DHT22;49514;43.538;-5.708;2023-02-13T11:28:05;15.90;93.10
60234;DHT22;49514;43.538;-5.708;2023-02-13T11:30:34;16.10;92.30
60234;DHT22;49514;43.538;-5.708;2023-02-13T11:33:04;16.30;92.40
60234;DHT22;49514;43.538;-5.708;2023-02-13T11:35:34;16.50;92.30
60234;DHT22;49514;43.538;-5.708;2023-02-13T11:38:21;16.60;91.30
60234;DHT22;49514;43.538;-5.708;2023-02-13T11:41:07;16.70;90.60
60234;DHT22;49514;43.538;-5.708;2023-02-13T11:43:52;16.90;90.40
60234;DHT22;49514;43.538;-5.708;2023-02-13T11:46:21;17.00;89.40
60234;DHT22;49514;43.538;-5.708;2023-02-13T11:51:35;17.30;88.80
60234;DHT22;49514;43.538;-5.708;2023-02-13T11:54:02;17.50;87.80
60234;DHT22;49514;43.538;-5.708;2023-02-13T11:56:35;17.80;90.00
60234;DHT22;49514;43.538;-5.708;2023-02-13T11:59:11;18.10;89.80
60234;DHT22;49514;43.538;-5.708;2023-02-13T12:01:38;18.20;86.30
60234;DHT22;49514;43.538;-5.708;2023-02-13T12:06:31;18.80;89.70
60234;DHT22;49514;43.538;-5.708;2023-02-13T12:09:09;19.00;89.10
60234;DHT22;49514;43.538;-5.708;2023-02-13T12:11:46;19.30;90.10
60234;DHT22;49514;43.538;-5.708;2023-02-13T12:14:18;19.60;83.90
60234;DHT22;49514;43.538;-5.708;2023-02-13T12:16:57;19.70;86.00
60234;DHT22;49514;43.538;-5.708;2023-02-13T12:19:42;19.90;84.50
60234;DHT22;49514;43.538;-5.708;2023-02-13T12:24:57;20.30;82.70
60234;DHT22;49514;43.538;-5.708;2023-02-13T12:35:04;20.80;77.80
60234;DHT22;49514;43.538;-5.708;2023-02-13T12:46:09;20.70;79.30
60234;DHT22;49514;43.538;-5.708;2023-02-13T12:51:02;21.00;76.90
60234;DHT22;49514;43.538;-5.708;2023-02-13T13:20:06;22.00;71.20
60234;DHT22;49514;43.538;-5.708;2023-02-13T13:28:01;21.80;71.00
60234;DHT22;49514;43.538;-5.708;2023-02-13T13:30:33;21.70;69.80
60234;DHT22;49514;43.538;-5.708;2023-02-13T13:33:43;21.80;71.90
60234;DHT22;49514;43.538;-5.708;2023-02-13T13:41:14;22.20;70.90
60234;DHT22;49514;43.538;-5.708;2023-02-13T13:49:04;22.40;71.30
60234;DHT22;49514;43.538;-5.708;2023-02-13T13:51:33;22.60;70.20
60234;DHT22;49514;43.538;-5.708;2023-02-13T13:57:12;23.10;70.20
60234;DHT22;49514;43.538;-5.708;2023-02-13T13:59:16;23.50;70.30
60234;DHT22;49514;43.538;-5.708;2023-02-13T14:01:43;23.60;70.60
60234;DHT22;49514;43.538;-5.708;2023-02-13T14:11:53;23.40;70.40
60234;DHT22;49514;43.538;-5.708;2023-02-13T14:16:54;23.60;70.40
60234;DHT22;49514;43.538;-5.708;2023-02-13T14:21:47;23.40;71.20
60234;DHT22;49514;43.538;-5.708;2023-02-13T14:24:15;23.40;71.00
60234;DHT22;49514;43.538;-5.708;2023-02-13T14:26:48;23.70;70.00
60234;DHT22;49514;43.538;-5.708;2023-02-13T14:31:51;25.10;67.00
60234;DHT22;49514;43.538;-5.708;2023-02-13T14:34:20;25.30;65.70
60234;DHT22;49514;43.538;-5.708;2023-02-13T14:37:01;25.70;66.40
60234;DHT22;49514;43.538;-5.708;2023-02-13T14:39:31;26.20;67.00
60234;DHT22;49514;43.538;-5.708;2023-02-13T14:41:58;26.50;65.10
60234;DHT22;49514;43.538;-5.708;2023-02-13T14:44:30;26.30;63.30
60234;DHT22;49514;43.538;-5.708;2023-02-13T14:46:58;25.90;65.50
60234;DHT22;49514;43.538;-5.708;2023-02-13T14:49:29;25.90;65.00
60234;DHT22;49514;43.538;-5.708;2023-02-13T14:51:57;25.60;64.80
60234;DHT22;49514;43.538;-5.708;2023-02-13T14:56:52;25.00;65.50
60234;DHT22;49514;43.538;-5.708;2023-02-13T14:59:23;25.00;64.80
60234;DHT22;49514;43.538;-5.708;2023-02-13T15:01:59;24.80;65.80
60234;DHT22;49514;43.538;-5.708;2023-02-13T15:04:45;24.80;66.50
60234;DHT22;49514;43.538;-5.708;2023-02-13T15:07:18;24.90;68.20
60234;DHT22;49514;43.538;-5.708;2023-02-13T15:09:58;24.90;69.00
60234;DHT22;49514;43.538;-5.708;2023-02-13T15:12:26;24.80;69.90
60234;DHT22;49514;43.538;-5.708;2023-02-13T15:14:53;24.80;71.00
60234;DHT22;49514;43.538;-5.708;2023-02-13T15:17:21;25.00;70.20
60234;DHT22;49514;43.538;-5.708;2023-02-13T15:19:49;24.80;70.20
60234;DHT22;49514;43.538;-5.708;2023-02-13T15:22:17;24.90;70.60
60234;DHT22;49514;43.538;-5.708;2023-02-13T15:24:45;25.10;70.00
60234;DHT22;49514;43.538;-5.708;2023-02-13T15:27:17;25.70;70.50
60234;DHT22;49514;43.538;-5.708;2023-02-13T15:29:53;26.80;70.40
60234;DHT22;49514;43.538;-5.708;2023-02-13T15:32:25;28.60;66.00
60234;DHT22;49514;43.538;-5.708;2023-02-13T15:34:51;29.30;64.60
60234;DHT22;49514;43.538;-5.708;2023-02-13T15:37:22;29.40;65.00
60234;DHT22;49514;43.538;-5.708;2023-02-13T15:39:49;29.10;64.30
60234;DHT22;49514;43.538;-5.708;2023-02-13T15:42:15;29.50;63.90
60234;DHT22;49514;43.538;-5.708;2023-02-13T15:44:42;28.80;63.70
60234;DHT22;49514;43.538;-5.708;2023-02-13T15:47:17;28.60;63.30
60234;DHT22;49514;43.538;-5.708;2023-02-13T15:49:46;29.00;64.20
60234;DHT22;49514;43.538;-5.708;2023-02-13T15:54:49;31.70;62.70
60234;DHT22;49514;43.538;-5.708;2023-02-13T15:57:16;32.70;61.20
60234;DHT22;49514;43.538;-5.708;2023-02-13T15:59:42;32.40;60.40
60234;DHT22;49514;43.538;-5.708;2023-02-13T16:02:22;31.40;60.20
60234;DHT22;49514;43.538;-5.708;2023-02-13T16:04:51;30.60;59.80
60234;DHT22;49514;43.538;-5.708;2023-02-13T16:07:18;30.30;61.30
60234;DHT22;49514;43.538;-5.708;2023-02-13T16:09:46;30.40;62.20
60234;DHT22;49514;43.538;-5.708;2023-02-13T16:14:47;30.80;60.00
60234;DHT22;49514;43.538;-5.708;2023-02-13T16:17:15;29.90;59.20
60234;DHT22;49514;43.538;-5.708;2023-02-13T16:19:55;29.10;59.70
60234;DHT22;49514;43.538;-5.708;2023-02-13T16:22:47;27.90;60.30
60234;DHT22;49514;43.538;-5.708;2023-02-13T16:30:44;25.50;63.80
60234;DHT22;49514;43.538;-5.708;2023-02-13T16:38:25;23.70;68.80
60234;DHT22;49514;43.538;-5.708;2023-02-13T16:40:52;23.10;70.50
60234;DHT22;49514;43.538;-5.708;2023-02-13T16:43:32;22.70;72.40
60234;DHT22;49514;43.538;-5.708;2023-02-13T16:54:04;20.90;76.60
60234;DHT22;49514;43.538;-5.708;2023-02-13T17:02:28;19.90;81.90
60234;DHT22;49514;43.538;-5.708;2023-02-13T17:07:35;19.40;86.30
60234;DHT22;49514;43.538;-5.708;2023-02-13T17:10:06;19.20;85.30
60234;DHT22;49514;43.538;-5.708;2023-02-13T17:12:37;19.10;84.70
60234;DHT22;49514;43.538;-5.708;2023-02-13T17:15:06;18.80;85.60
60234;DHT22;49514;43.538;-5.708;2023-02-13T17:17:38;18.80;93.10
60234;DHT22;49514;43.538;-5.708;2023-02-13T17:20:05;18.40;88.50
60234;DHT22;49514;43.538;-5.708;2023-02-13T17:22:33;18.30;90.70
60234;DHT22;49514;43.538;-5.708;2023-02-13T17:25:03;18.10;97.60
60234;DHT22;49514;43.538;-5.708;2023-02-13T17:27:30;17.90;92.70
60234;DHT22;49514;43.538;-5.708;2023-02-13T17:29:56;17.60;94.10
60234;DHT22;49514;43.538;-5.708;2023-02-13T17:32:25;17.50;95.10
60234;DHT22;49514;43.538;-5.708;2023-02-13T17:37:27;17.20;99.90
60234;DHT22;49514;43.538;-5.708;2023-02-13T17:39:55;16.80;98.60
60234;DHT22;49514;43.538;-5.708;2023-02-13T17:44:54;16.50;99.90
60234;DHT22;49514;43.538;-5.708;2023-02-13T17:47:22;16.40;99.90
60234;DHT22;49514;43.538;-5.708;2023-02-13T17:49:49;16.20;99.90
60234;DHT22;49514;43.538;-5.708;2023-02-13T17:52:23;16.10;99.90
60234;DHT22;49514;43.538;-5.708;2023-02-13T17:54:50;16.00;99.90
60234;DHT22;49514;43.538;-5.708;2023-02-13T17:57:18;15.90;99.90
60234;DHT22;49514;43.538;-5.708;2023-02-13T17:59:45;15.80;99.90
60234;DHT22;49514;43.538;-5.708;2023-02-13T18:02:20;15.70;99.90
60234;DHT22;49514;43.538;-5.708;2023-02-13T18:04:47;15.70;99.90
60234;DHT22;49514;43.538;-5.708;2023-02-13T18:07:19;15.60;99.90
60234;DHT22;49514;43.538;-5.708;2023-02-13T18:09:46;15.60;99.90
60234;DHT22;49514;43.538;-5.708;2023-02-13T18:14:45;15.50;99.90
60234;DHT22;49514;43.538;-5.708;2023-02-13T18:17:12;15.40;99.90
60234;DHT22;49514;43.538;-5.708;2023-02-13T18:19:39;15.40;99.90
60234;DHT22;49514;43.538;-5.708;2023-02-13T18:22:07;15.30;99.90
60234;DHT22;49514;43.538;-5.708;2023-02-13T18:24:37;15.30;99.90
60234;DHT22;49514;43.538;-5.708;2023-02-13T18:27:05;15.20;99.90
60234;DHT22;49514;43.538;-5.708;2023-02-13T18:29:33;15.10;99.90
60234;DHT22;49514;43.538;-5.708;2023-02-13T18:32:04;15.10;99.90
60234;DHT22;49514;43.538;-5.708;2023-02-13T18:34:32;15.00;99.90
60234;DHT22;49514;43.538;-5.708;2023-02-13T18:36:59;15.00;99.90
60234;DHT22;49514;43.538;-5.708;2023-02-13T18:39:25;14.90;99.90
60234;DHT22;49514;43.538;-5.708;2023-02-13T18:41:52;14.90;99.90
60234;DHT22;49514;43.538;-5.708;2023-02-13T18:44:19;14.80;99.90
60234;DHT22;49514;43.538;-5.708;2023-02-13T18:46:46;14.80;99.90
60234;DHT22;49514;43.538;-5.708;2023-02-13T18:49:12;14.70;99.90
60234;DHT22;49514;43.538;-5.708;2023-02-13T18:51:40;14.60;99.90
60234;DHT22;49514;43.538;-5.708;2023-02-13T18:54:08;14.60;99.90
60234;DHT22;49514;43.538;-5.708;2023-02-13T18:56:35;14.50;99.90
60234;DHT22;49514;43.538;-5.708;2023-02-13T18:59:02;14.50;99.90
60234;DHT22;49514;43.538;-5.708;2023-02-13T19:01:29;14.40;99.90
60234;DHT22;49514;43.538;-5.708;2023-02-13T19:03:55;14.30;99.90
60234;DHT22;49514;43.538;-5.708;2023-02-13T19:06:24;14.30;99.90
60234;DHT22;49514;43.538;-5.708;2023-02-13T19:08:51;14.20;99.90